Hurleyville, New York
Current Conditions -  °F | °C
As of 4:15 PM on Sunday 23 Nov 2014 (Local Time) from KMSV Reporting Station
Clear Clear  
Wind Chill: 10°   Ceiling: Unl
Heat Index: 10°   Visibility: 10mi
Dew Point: -1°   Wind: 5mph
Humidity: 47%   Direction: 150°SSE
Pressure: 30.09"   Gusts: NA
Location:  41.74°N, 74.67°W
Report Text: KMSV 232115Z AUTO 15004KT 10SM CLR 10/M01 A3009 RMK AO1
Loading
Personal Weather Stations






























Interactive Weather Map New forecast layout! Learn more

10-Day Weather Forecast

Advertisements
Track Severe Weather on mobile